Jewett, Wisconsin
Current Conditions -  °F | °C
As of 2:55 PM on Thursday 20 Nov 2014 (Local Time) from KRNH Reporting Station
Clear Clear  
Wind Chill: -16°   Ceiling: Unl
Heat Index: -9°   Visibility: 10mi
Dew Point: -18°   Wind: 12mph
Humidity: 51%   Direction: 280°W
Pressure: 30.12"   Gusts: NA
Location:  45.1804°N, 92.551°W
Report Text: KRNH 202055Z AUTO 28010KT 10SM CLR M09/M18 A3012 RMK AO2 T10901176
Loading
Personal Weather Stations






























Interactive Weather Map New forecast layout! Learn more

10-Day Weather Forecast

Advertisements
Track Severe Weather on mobile